Morris Ranch, Texas
Current Conditions -  °F | °C
As of 6:35 PM on Friday 24 Oct 2014 (Local Time) from KT82 Reporting Station
Clear Clear  
Wind Chill: 78°   Ceiling: Unl
Heat Index: 79°   Visibility: 10mi
Dew Point: 57°   Wind: 5mph
Humidity: 49%   Direction: 130°SE
Pressure: 30.12"   Gusts: NA
Location:  30.3069°N, 98.8978°W
Report Text: KT82 242335Z AUTO 13004KT 10SM CLR 26/14 A3012 RMK AO2 T02560140
Loading
Personal Weather Stations






























Interactive Weather Map
Tropical Storm Tracking
New forecast layout! Learn more

10-Day Weather Forecast

Advertisements
Track Severe Weather on mobile